sensor_id;sensor_type;location;lat;lon;timestamp;P1;durP1;ratioP1;P2;durP2;ratioP2
19396;SDS011;9834;48.076;11.878;2022-11-20T00:01:27;2.40;;;2.17;;
19396;SDS011;9834;48.076;11.878;2022-11-20T00:03:54;2.63;;;2.43;;
19396;SDS011;9834;48.076;11.878;2022-11-20T00:06:25;3.23;;;2.83;;
19396;SDS011;9834;48.076;11.878;2022-11-20T00:08:53;3.97;;;2.60;;
19396;SDS011;9834;48.076;11.878;2022-11-20T00:11:22;1.93;;;1.70;;
19396;SDS011;9834;48.076;11.878;2022-11-20T00:13:51;2.13;;;1.87;;
19396;SDS011;9834;48.076;11.878;2022-11-20T00:16:20;6.03;;;2.17;;
19396;SDS011;9834;48.076;11.878;2022-11-20T00:18:49;2.83;;;1.53;;
19396;SDS011;9834;48.076;11.878;2022-11-20T00:21:17;1.53;;;1.43;;
19396;SDS011;9834;48.076;11.878;2022-11-20T00:23:48;1.90;;;1.77;;
19396;SDS011;9834;48.076;11.878;2022-11-20T00:26:16;2.30;;;2.10;;
19396;SDS011;9834;48.076;11.878;2022-11-20T00:28:48;2.40;;;1.80;;
19396;SDS011;9834;48.076;11.878;2022-11-20T00:31:16;2.50;;;1.90;;
19396;SDS011;9834;48.076;11.878;2022-11-20T00:33:44;1.63;;;1.50;;
19396;SDS011;9834;48.076;11.878;2022-11-20T00:36:12;1.90;;;1.80;;
19396;SDS011;9834;48.076;11.878;2022-11-20T00:38:40;2.63;;;1.73;;
19396;SDS011;9834;48.076;11.878;2022-11-20T00:41:10;2.27;;;1.80;;
19396;SDS011;9834;48.076;11.878;2022-11-20T00:43:38;2.83;;;1.57;;
19396;SDS011;9834;48.076;11.878;2022-11-20T00:46:05;2.03;;;1.67;;
19396;SDS011;9834;48.076;11.878;2022-11-20T00:48:34;2.83;;;2.03;;
19396;SDS011;9834;48.076;11.878;2022-11-20T00:51:01;2.70;;;2.00;;
19396;SDS011;9834;48.076;11.878;2022-11-20T00:53:28;3.07;;;1.70;;
19396;SDS011;9834;48.076;11.878;2022-11-20T00:55:55;1.73;;;1.40;;
19396;SDS011;9834;48.076;11.878;2022-11-20T00:58:25;1.80;;;1.50;;
19396;SDS011;9834;48.076;11.878;2022-11-20T01:00:59;1.80;;;1.33;;
19396;SDS011;9834;48.076;11.878;2022-11-20T01:03:27;1.83;;;1.60;;
19396;SDS011;9834;48.076;11.878;2022-11-20T01:05:54;2.00;;;1.20;;
19396;SDS011;9834;48.076;11.878;2022-11-20T01:08:25;2.03;;;1.63;;
19396;SDS011;9834;48.076;11.878;2022-11-20T01:10:58;1.60;;;1.50;;
19396;SDS011;9834;48.076;11.878;2022-11-20T01:13:27;1.67;;;1.57;;
19396;SDS011;9834;48.076;11.878;2022-11-20T01:16:04;4.00;;;1.73;;
19396;SDS011;9834;48.076;11.878;2022-11-20T01:18:32;1.40;;;1.30;;
19396;SDS011;9834;48.076;11.878;2022-11-20T01:21:00;1.87;;;1.47;;
19396;SDS011;9834;48.076;11.878;2022-11-20T01:23:30;1.60;;;1.20;;
19396;SDS011;9834;48.076;11.878;2022-11-20T01:25:59;4.87;;;1.80;;
19396;SDS011;9834;48.076;11.878;2022-11-20T01:28:29;2.03;;;1.77;;
19396;SDS011;9834;48.076;11.878;2022-11-20T01:30:56;1.53;;;1.43;;
19396;SDS011;9834;48.076;11.878;2022-11-20T01:33:23;2.03;;;1.60;;
19396;SDS011;9834;48.076;11.878;2022-11-20T01:35:51;2.10;;;1.77;;
19396;SDS011;9834;48.076;11.878;2022-11-20T01:38:18;1.63;;;1.53;;
19396;SDS011;9834;48.076;11.878;2022-11-20T01:40:53;1.87;;;1.77;;
19396;SDS011;9834;48.076;11.878;2022-11-20T01:43:20;1.70;;;1.60;;
19396;SDS011;9834;48.076;11.878;2022-11-20T01:45:52;2.87;;;1.37;;
19396;SDS011;9834;48.076;11.878;2022-11-20T01:48:28;2.93;;;1.93;;
19396;SDS011;9834;48.076;11.878;2022-11-20T01:50:59;3.13;;;2.10;;
19396;SDS011;9834;48.076;11.878;2022-11-20T01:53:28;2.70;;;2.00;;
19396;SDS011;9834;48.076;11.878;2022-11-20T01:55:58;2.50;;;2.30;;
19396;SDS011;9834;48.076;11.878;2022-11-20T01:58:28;4.90;;;1.87;;
19396;SDS011;9834;48.076;11.878;2022-11-20T02:01:00;4.13;;;1.90;;
19396;SDS011;9834;48.076;11.878;2022-11-20T02:03:27;4.50;;;1.93;;
19396;SDS011;9834;48.076;11.878;2022-11-20T02:05:55;3.33;;;2.30;;
19396;SDS011;9834;48.076;11.878;2022-11-20T02:08:28;3.87;;;2.53;;
19396;SDS011;9834;48.076;11.878;2022-11-20T02:10:56;2.10;;;1.90;;
19396;SDS011;9834;48.076;11.878;2022-11-20T02:13:23;3.03;;;2.23;;
19396;SDS011;9834;48.076;11.878;2022-11-20T02:16:09;1.93;;;1.50;;
19396;SDS011;9834;48.076;11.878;2022-11-20T02:18:39;3.10;;;1.97;;
19396;SDS011;9834;48.076;11.878;2022-11-20T02:21:08;2.03;;;1.83;;
19396;SDS011;9834;48.076;11.878;2022-11-20T02:23:40;3.20;;;2.10;;
19396;SDS011;9834;48.076;11.878;2022-11-20T02:26:20;3.00;;;1.80;;
19396;SDS011;9834;48.076;11.878;2022-11-20T02:28:49;2.07;;;1.83;;
19396;SDS011;9834;48.076;11.878;2022-11-20T02:31:16;3.57;;;2.33;;
19396;SDS011;9834;48.076;11.878;2022-11-20T02:33:43;2.03;;;1.83;;
19396;SDS011;9834;48.076;11.878;2022-11-20T02:36:11;2.37;;;2.17;;
19396;SDS011;9834;48.076;11.878;2022-11-20T02:38:40;2.10;;;2.00;;
19396;SDS011;9834;48.076;11.878;2022-11-20T02:41:09;2.27;;;2.07;;
19396;SDS011;9834;48.076;11.878;2022-11-20T02:43:36;1.93;;;1.77;;
19396;SDS011;9834;48.076;11.878;2022-11-20T02:46:03;2.07;;;1.87;;
19396;SDS011;9834;48.076;11.878;2022-11-20T02:48:33;3.03;;;1.93;;
19396;SDS011;9834;48.076;11.878;2022-11-20T02:51:00;3.30;;;2.07;;
19396;SDS011;9834;48.076;11.878;2022-11-20T02:53:27;3.13;;;2.27;;
19396;SDS011;9834;48.076;11.878;2022-11-20T02:55:54;2.07;;;1.87;;
19396;SDS011;9834;48.076;11.878;2022-11-20T02:58:23;2.93;;;2.00;;
19396;SDS011;9834;48.076;11.878;2022-11-20T03:00:50;3.27;;;2.20;;
19396;SDS011;9834;48.076;11.878;2022-11-20T03:03:18;5.60;;;2.57;;
19396;SDS011;9834;48.076;11.878;2022-11-20T03:05:45;2.83;;;2.47;;
19396;SDS011;9834;48.076;11.878;2022-11-20T03:08:12;2.43;;;1.83;;
19396;SDS011;9834;48.076;11.878;2022-11-20T03:10:39;3.60;;;2.47;;
19396;SDS011;9834;48.076;11.878;2022-11-20T03:13:05;2.23;;;2.03;;
19396;SDS011;9834;48.076;11.878;2022-11-20T03:15:34;2.73;;;2.17;;
19396;SDS011;9834;48.076;11.878;2022-11-20T03:18:02;3.43;;;2.57;;
19396;SDS011;9834;48.076;11.878;2022-11-20T03:20:29;3.03;;;2.73;;
19396;SDS011;9834;48.076;11.878;2022-11-20T03:22:56;4.00;;;2.03;;
19396;SDS011;9834;48.076;11.878;2022-11-20T03:25:23;2.57;;;2.37;;
19396;SDS011;9834;48.076;11.878;2022-11-20T03:27:50;3.23;;;2.03;;
19396;SDS011;9834;48.076;11.878;2022-11-20T03:30:16;3.23;;;2.27;;
19396;SDS011;9834;48.076;11.878;2022-11-20T03:32:45;2.57;;;1.90;;
19396;SDS011;9834;48.076;11.878;2022-11-20T03:35:12;2.63;;;1.97;;
19396;SDS011;9834;48.076;11.878;2022-11-20T03:37:39;2.17;;;1.80;;
19396;SDS011;9834;48.076;11.878;2022-11-20T03:40:06;5.23;;;2.30;;
19396;SDS011;9834;48.076;11.878;2022-11-20T03:42:33;2.17;;;1.90;;
19396;SDS011;9834;48.076;11.878;2022-11-20T03:45:12;2.07;;;1.60;;
19396;SDS011;9834;48.076;11.878;2022-11-20T03:47:40;4.10;;;1.73;;
19396;SDS011;9834;48.076;11.878;2022-11-20T03:50:08;2.27;;;1.97;;
19396;SDS011;9834;48.076;11.878;2022-11-20T03:52:38;2.53;;;1.90;;
19396;SDS011;9834;48.076;11.878;2022-11-20T03:55:05;2.03;;;1.83;;
19396;SDS011;9834;48.076;11.878;2022-11-20T03:57:32;3.03;;;1.77;;
19396;SDS011;9834;48.076;11.878;2022-11-20T03:59:59;1.83;;;1.40;;
19396;SDS011;9834;48.076;11.878;2022-11-20T04:02:26;1.80;;;1.70;;
19396;SDS011;9834;48.076;11.878;2022-11-20T04:04:53;1.90;;;1.73;;
19396;SDS011;9834;48.076;11.878;2022-11-20T04:07:21;1.40;;;1.30;;
19396;SDS011;9834;48.076;11.878;2022-11-20T04:09:48;1.37;;;1.23;;
19396;SDS011;9834;48.076;11.878;2022-11-20T04:12:15;3.80;;;1.90;;
19396;SDS011;9834;48.076;11.878;2022-11-20T04:14:42;1.77;;;1.60;;
19396;SDS011;9834;48.076;11.878;2022-11-20T04:17:09;1.97;;;1.77;;
19396;SDS011;9834;48.076;11.878;2022-11-20T04:19:36;1.73;;;1.63;;
19396;SDS011;9834;48.076;11.878;2022-11-20T04:22:03;1.33;;;1.23;;
19396;SDS011;9834;48.076;11.878;2022-11-20T04:24:31;1.40;;;1.30;;
19396;SDS011;9834;48.076;11.878;2022-11-20T04:26:58;3.97;;;2.13;;
19396;SDS011;9834;48.076;11.878;2022-11-20T04:29:25;1.60;;;1.50;;
19396;SDS011;9834;48.076;11.878;2022-11-20T04:31:52;1.57;;;1.47;;
19396;SDS011;9834;48.076;11.878;2022-11-20T04:34:19;1.73;;;1.40;;
19396;SDS011;9834;48.076;11.878;2022-11-20T04:36:46;1.70;;;1.40;;
19396;SDS011;9834;48.076;11.878;2022-11-20T04:39:13;2.37;;;1.50;;
19396;SDS011;9834;48.076;11.878;2022-11-20T04:41:43;1.90;;;1.73;;
19396;SDS011;9834;48.076;11.878;2022-11-20T04:44:10;2.63;;;1.47;;
19396;SDS011;9834;48.076;11.878;2022-11-20T04:46:37;2.50;;;1.70;;
19396;SDS011;9834;48.076;11.878;2022-11-20T04:49:06;1.23;;;1.13;;
19396;SDS011;9834;48.076;11.878;2022-11-20T04:51:33;2.57;;;1.20;;
19396;SDS011;9834;48.076;11.878;2022-11-20T04:54:00;1.37;;;1.27;;
19396;SDS011;9834;48.076;11.878;2022-11-20T04:56:28;1.43;;;1.33;;
19396;SDS011;9834;48.076;11.878;2022-11-20T04:58:56;1.40;;;1.30;;
19396;SDS011;9834;48.076;11.878;2022-11-20T05:01:27;2.87;;;1.70;;
19396;SDS011;9834;48.076;11.878;2022-11-20T05:03:54;3.90;;;1.53;;
19396;SDS011;9834;48.076;11.878;2022-11-20T05:06:21;1.87;;;1.50;;
19396;SDS011;9834;48.076;11.878;2022-11-20T05:08:48;1.40;;;1.30;;
19396;SDS011;9834;48.076;11.878;2022-11-20T05:11:16;1.77;;;1.67;;
19396;SDS011;9834;48.076;11.878;2022-11-20T05:13:45;1.83;;;1.27;;
19396;SDS011;9834;48.076;11.878;2022-11-20T05:16:14;2.37;;;1.80;;
19396;SDS011;9834;48.076;11.878;2022-11-20T05:18:42;3.13;;;1.57;;
19396;SDS011;9834;48.076;11.878;2022-11-20T05:21:09;2.23;;;1.90;;
19396;SDS011;9834;48.076;11.878;2022-11-20T05:23:37;1.50;;;1.33;;
19396;SDS011;9834;48.076;11.878;2022-11-20T05:26:04;1.53;;;1.43;;
19396;SDS011;9834;48.076;11.878;2022-11-20T05:28:33;2.30;;;1.70;;
19396;SDS011;9834;48.076;11.878;2022-11-20T05:31:03;1.70;;;1.60;;
19396;SDS011;9834;48.076;11.878;2022-11-20T05:33:33;4.50;;;1.30;;
19396;SDS011;9834;48.076;11.878;2022-11-20T05:36:00;1.37;;;1.27;;
19396;SDS011;9834;48.076;11.878;2022-11-20T05:38:28;2.03;;;1.83;;
19396;SDS011;9834;48.076;11.878;2022-11-20T05:40:55;2.47;;;1.87;;
19396;SDS011;9834;48.076;11.878;2022-11-20T05:43:31;3.00;;;2.07;;
19396;SDS011;9834;48.076;11.878;2022-11-20T05:45:58;2.37;;;1.50;;
19396;SDS011;9834;48.076;11.878;2022-11-20T05:48:25;3.93;;;2.33;;
19396;SDS011;9834;48.076;11.878;2022-11-20T05:50:53;5.43;;;1.70;;
19396;SDS011;9834;48.076;11.878;2022-11-20T05:53:20;3.17;;;1.90;;
19396;SDS011;9834;48.076;11.878;2022-11-20T05:55:55;3.20;;;2.23;;
19396;SDS011;9834;48.076;11.878;2022-11-20T05:58:22;1.50;;;1.40;;
19396;SDS011;9834;48.076;11.878;2022-11-20T06:00:49;1.87;;;1.77;;
19396;SDS011;9834;48.076;11.878;2022-11-20T06:03:17;2.17;;;1.97;;
19396;SDS011;9834;48.076;11.878;2022-11-20T06:05:44;2.30;;;1.87;;
19396;SDS011;9834;48.076;11.878;2022-11-20T06:08:12;2.30;;;1.90;;
19396;SDS011;9834;48.076;11.878;2022-11-20T06:10:39;2.50;;;2.03;;
19396;SDS011;9834;48.076;11.878;2022-11-20T06:13:06;3.23;;;2.23;;
19396;SDS011;9834;48.076;11.878;2022-11-20T06:15:33;2.90;;;1.90;;
19396;SDS011;9834;48.076;11.878;2022-11-20T06:18:00;2.60;;;2.40;;
19396;SDS011;9834;48.076;11.878;2022-11-20T06:20:26;2.47;;;2.17;;
19396;SDS011;9834;48.076;11.878;2022-11-20T06:22:53;4.37;;;2.90;;
19396;SDS011;9834;48.076;11.878;2022-11-20T06:25:22;2.93;;;2.40;;
19396;SDS011;9834;48.076;11.878;2022-11-20T06:27:48;2.40;;;2.20;;
19396;SDS011;9834;48.076;11.878;2022-11-20T06:30:15;4.37;;;2.80;;
19396;SDS011;9834;48.076;11.878;2022-11-20T06:32:42;4.20;;;3.17;;
19396;SDS011;9834;48.076;11.878;2022-11-20T06:35:09;6.53;;;3.07;;
19396;SDS011;9834;48.076;11.878;2022-11-20T06:37:36;3.83;;;2.80;;
19396;SDS011;9834;48.076;11.878;2022-11-20T06:40:04;3.87;;;2.80;;
19396;SDS011;9834;48.076;11.878;2022-11-20T06:42:33;3.53;;;2.67;;
19396;SDS011;9834;48.076;11.878;2022-11-20T06:45:00;5.23;;;2.50;;
19396;SDS011;9834;48.076;11.878;2022-11-20T06:47:27;3.47;;;2.53;;
19396;SDS011;9834;48.076;11.878;2022-11-20T06:49:54;5.03;;;3.73;;
19396;SDS011;9834;48.076;11.878;2022-11-20T06:52:21;3.13;;;2.83;;
19396;SDS011;9834;48.076;11.878;2022-11-20T06:54:48;3.47;;;2.73;;
19396;SDS011;9834;48.076;11.878;2022-11-20T06:57:15;3.37;;;3.07;;
19396;SDS011;9834;48.076;11.878;2022-11-20T06:59:43;4.27;;;2.50;;
19396;SDS011;9834;48.076;11.878;2022-11-20T07:02:10;5.50;;;2.83;;
19396;SDS011;9834;48.076;11.878;2022-11-20T07:04:37;3.30;;;3.00;;
19396;SDS011;9834;48.076;11.878;2022-11-20T07:07:04;2.60;;;2.40;;
19396;SDS011;9834;48.076;11.878;2022-11-20T07:09:32;3.20;;;2.70;;
19396;SDS011;9834;48.076;11.878;2022-11-20T07:11:59;4.07;;;2.63;;
19396;SDS011;9834;48.076;11.878;2022-11-20T07:14:26;6.43;;;2.30;;
19396;SDS011;9834;48.076;11.878;2022-11-20T07:16:55;2.50;;;2.13;;
19396;SDS011;9834;48.076;11.878;2022-11-20T07:19:22;2.33;;;2.13;;
19396;SDS011;9834;48.076;11.878;2022-11-20T07:21:49;3.00;;;2.20;;
19396;SDS011;9834;48.076;11.878;2022-11-20T07:24:16;2.40;;;2.20;;
19396;SDS011;9834;48.076;11.878;2022-11-20T07:26:45;4.43;;;2.30;;
19396;SDS011;9834;48.076;11.878;2022-11-20T07:29:13;2.63;;;1.80;;
19396;SDS011;9834;48.076;11.878;2022-11-20T07:31:39;2.10;;;1.87;;
19396;SDS011;9834;48.076;11.878;2022-11-20T07:34:11;3.43;;;2.53;;
19396;SDS011;9834;48.076;11.878;2022-11-20T07:36:38;5.30;;;2.70;;
19396;SDS011;9834;48.076;11.878;2022-11-20T07:39:05;1.97;;;1.87;;
19396;SDS011;9834;48.076;11.878;2022-11-20T07:41:32;2.53;;;2.33;;
19396;SDS011;9834;48.076;11.878;2022-11-20T07:43:59;1.40;;;1.30;;
19396;SDS011;9834;48.076;11.878;2022-11-20T07:46:26;3.90;;;2.63;;
19396;SDS011;9834;48.076;11.878;2022-11-20T07:48:53;1.77;;;1.67;;
19396;SDS011;9834;48.076;11.878;2022-11-20T07:51:21;4.70;;;2.10;;
19396;SDS011;9834;48.076;11.878;2022-11-20T07:53:50;2.93;;;2.23;;
19396;SDS011;9834;48.076;11.878;2022-11-20T07:56:17;1.83;;;1.57;;
19396;SDS011;9834;48.076;11.878;2022-11-20T07:58:44;2.13;;;1.90;;
19396;SDS011;9834;48.076;11.878;2022-11-20T08:01:11;2.47;;;1.77;;
19396;SDS011;9834;48.076;11.878;2022-11-20T08:03:38;2.67;;;1.77;;
19396;SDS011;9834;48.076;11.878;2022-11-20T08:06:05;2.93;;;1.57;;
19396;SDS011;9834;48.076;11.878;2022-11-20T08:08:33;2.40;;;1.87;;
19396;SDS011;9834;48.076;11.878;2022-11-20T08:11:00;2.03;;;1.50;;
19396;SDS011;9834;48.076;11.878;2022-11-20T08:13:41;2.43;;;1.50;;
19396;SDS011;9834;48.076;11.878;2022-11-20T08:16:25;1.70;;;1.60;;
19396;SDS011;9834;48.076;11.878;2022-11-20T08:18:53;2.03;;;1.60;;
19396;SDS011;9834;48.076;11.878;2022-11-20T08:21:20;3.50;;;1.60;;
19396;SDS011;9834;48.076;11.878;2022-11-20T08:23:48;1.60;;;1.47;;
19396;SDS011;9834;48.076;11.878;2022-11-20T08:26:15;1.60;;;1.40;;
19396;SDS011;9834;48.076;11.878;2022-11-20T08:28:42;2.00;;;1.80;;
19396;SDS011;9834;48.076;11.878;2022-11-20T08:31:09;2.37;;;1.90;;
19396;SDS011;9834;48.076;11.878;2022-11-20T08:33:35;2.17;;;1.60;;
19396;SDS011;9834;48.076;11.878;2022-11-20T08:36:03;1.60;;;1.50;;
19396;SDS011;9834;48.076;11.878;2022-11-20T08:38:31;2.47;;;1.53;;
19396;SDS011;9834;48.076;11.878;2022-11-20T08:41:00;2.37;;;1.70;;
19396;SDS011;9834;48.076;11.878;2022-11-20T08:43:45;1.90;;;1.10;;
19396;SDS011;9834;48.076;11.878;2022-11-20T08:46:12;1.90;;;1.53;;
19396;SDS011;9834;48.076;11.878;2022-11-20T08:48:39;1.83;;;1.60;;
19396;SDS011;9834;48.076;11.878;2022-11-20T08:51:06;1.43;;;1.30;;
19396;SDS011;9834;48.076;11.878;2022-11-20T08:53:33;1.70;;;1.60;;
19396;SDS011;9834;48.076;11.878;2022-11-20T08:56:01;1.10;;;1.10;;
19396;SDS011;9834;48.076;11.878;2022-11-20T08:58:28;1.57;;;1.47;;
19396;SDS011;9834;48.076;11.878;2022-11-20T09:00:55;1.40;;;1.20;;
19396;SDS011;9834;48.076;11.878;2022-11-20T09:03:22;1.13;;;1.03;;
19396;SDS011;9834;48.076;11.878;2022-11-20T09:05:56;1.77;;;1.23;;
19396;SDS011;9834;48.076;11.878;2022-11-20T09:08:23;1.27;;;1.00;;
19396;SDS011;9834;48.076;11.878;2022-11-20T09:10:51;1.47;;;1.30;;
19396;SDS011;9834;48.076;11.878;2022-11-20T09:13:19;1.33;;;0.90;;
19396;SDS011;9834;48.076;11.878;2022-11-20T09:15:47;1.57;;;1.20;;
19396;SDS011;9834;48.076;11.878;2022-11-20T09:18:18;1.43;;;0.93;;
19396;SDS011;9834;48.076;11.878;2022-11-20T09:20:45;0.80;;;0.80;;
19396;SDS011;9834;48.076;11.878;2022-11-20T09:23:11;0.67;;;0.67;;
19396;SDS011;9834;48.076;11.878;2022-11-20T09:25:38;1.17;;;0.70;;
19396;SDS011;9834;48.076;11.878;2022-11-20T09:28:05;1.10;;;0.70;;
19396;SDS011;9834;48.076;11.878;2022-11-20T09:30:34;0.80;;;0.80;;
19396;SDS011;9834;48.076;11.878;2022-11-20T09:33:00;2.03;;;1.23;;
19396;SDS011;9834;48.076;11.878;2022-11-20T09:35:29;1.07;;;0.97;;
19396;SDS011;9834;48.076;11.878;2022-11-20T09:37:57;1.23;;;0.93;;
19396;SDS011;9834;48.076;11.878;2022-11-20T09:40:25;1.00;;;0.80;;
19396;SDS011;9834;48.076;11.878;2022-11-20T09:42:55;4.10;;;1.40;;
19396;SDS011;9834;48.076;11.878;2022-11-20T09:45:30;0.63;;;0.60;;
19396;SDS011;9834;48.076;11.878;2022-11-20T09:48:17;1.27;;;1.10;;
19396;SDS011;9834;48.076;11.878;2022-11-20T09:50:52;1.33;;;0.73;;
19396;SDS011;9834;48.076;11.878;2022-11-20T09:53:26;1.00;;;0.90;;
19396;SDS011;9834;48.076;11.878;2022-11-20T09:56:02;4.43;;;0.93;;
19396;SDS011;9834;48.076;11.878;2022-11-20T09:58:31;0.80;;;0.80;;
19396;SDS011;9834;48.076;11.878;2022-11-20T10:01:10;0.80;;;0.80;;
19396;SDS011;9834;48.076;11.878;2022-11-20T10:03:43;1.10;;;0.90;;
19396;SDS011;9834;48.076;11.878;2022-11-20T10:06:18;0.60;;;0.60;;
19396;SDS011;9834;48.076;11.878;2022-11-20T10:08:51;3.10;;;2.90;;
19396;SDS011;9834;48.076;11.878;2022-11-20T10:11:29;1.50;;;1.40;;
19396;SDS011;9834;48.076;11.878;2022-11-20T10:14:11;1.00;;;0.77;;
19396;SDS011;9834;48.076;11.878;2022-11-20T10:16:49;0.73;;;0.57;;
19396;SDS011;9834;48.076;11.878;2022-11-20T10:19:29;0.73;;;0.67;;
19396;SDS011;9834;48.076;11.878;2022-11-20T10:22:13;0.70;;;0.70;;
19396;SDS011;9834;48.076;11.878;2022-11-20T10:24:52;0.70;;;0.70;;
19396;SDS011;9834;48.076;11.878;2022-11-20T10:30:19;0.67;;;0.67;;
19396;SDS011;9834;48.076;11.878;2022-11-20T10:32:52;0.47;;;0.47;;
19396;SDS011;9834;48.076;11.878;2022-11-20T10:35:21;1.40;;;0.77;;
19396;SDS011;9834;48.076;11.878;2022-11-20T10:37:55;1.73;;;0.43;;
19396;SDS011;9834;48.076;11.878;2022-11-20T10:40:27;0.73;;;0.60;;
19396;SDS011;9834;48.076;11.878;2022-11-20T10:42:59;0.67;;;0.53;;
19396;SDS011;9834;48.076;11.878;2022-11-20T10:45:33;0.70;;;0.70;;
19396;SDS011;9834;48.076;11.878;2022-11-20T10:48:21;0.57;;;0.53;;
19396;SDS011;9834;48.076;11.878;2022-11-20T10:50:55;1.10;;;0.87;;
19396;SDS011;9834;48.076;11.878;2022-11-20T10:53:36;1.40;;;0.77;;
19396;SDS011;9834;48.076;11.878;2022-11-20T10:56:13;0.50;;;0.40;;
19396;SDS011;9834;48.076;11.878;2022-11-20T10:58:47;1.70;;;0.40;;
19396;SDS011;9834;48.076;11.878;2022-11-20T11:01:26;0.30;;;0.30;;
19396;SDS011;9834;48.076;11.878;2022-11-20T11:03:55;0.50;;;0.50;;
19396;SDS011;9834;48.076;11.878;2022-11-20T11:06:25;0.50;;;0.50;;
19396;SDS011;9834;48.076;11.878;2022-11-20T11:08:58;0.53;;;0.53;;
19396;SDS011;9834;48.076;11.878;2022-11-20T11:11:32;1.23;;;0.70;;
19396;SDS011;9834;48.076;11.878;2022-11-20T11:14:09;0.90;;;0.50;;
19396;SDS011;9834;48.076;11.878;2022-11-20T11:16:40;0.60;;;0.50;;
19396;SDS011;9834;48.076;11.878;2022-11-20T11:19:18;0.30;;;0.30;;
19396;SDS011;9834;48.076;11.878;2022-11-20T11:21:45;0.67;;;0.67;;
19396;SDS011;9834;48.076;11.878;2022-11-20T11:24:19;0.60;;;0.60;;
19396;SDS011;9834;48.076;11.878;2022-11-20T11:26:51;0.53;;;0.30;;
19396;SDS011;9834;48.076;11.878;2022-11-20T11:29:22;0.40;;;0.40;;
19396;SDS011;9834;48.076;11.878;2022-11-20T11:32:02;0.33;;;0.33;;
19396;SDS011;9834;48.076;11.878;2022-11-20T11:34:31;0.20;;;0.20;;
19396;SDS011;9834;48.076;11.878;2022-11-20T11:37:01;0.50;;;0.50;;
19396;SDS011;9834;48.076;11.878;2022-11-20T11:39:30;0.60;;;0.60;;
19396;SDS011;9834;48.076;11.878;2022-11-20T11:42:12;0.37;;;0.37;;
19396;SDS011;9834;48.076;11.878;2022-11-20T11:45:15;0.90;;;0.60;;
19396;SDS011;9834;48.076;11.878;2022-11-20T11:47:44;0.67;;;0.67;;
19396;SDS011;9834;48.076;11.878;2022-11-20T11:54:38;0.50;;;0.50;;
19396;SDS011;9834;48.076;11.878;2022-11-20T11:57:17;0.60;;;0.60;;
19396;SDS011;9834;48.076;11.878;2022-11-20T12:00:12;0.83;;;0.77;;
19396;SDS011;9834;48.076;11.878;2022-11-20T12:05:55;0.40;;;0.40;;
19396;SDS011;9834;48.076;11.878;2022-11-20T12:11:45;0.43;;;0.37;;
19396;SDS011;9834;48.076;11.878;2022-11-20T12:14:22;1.63;;;0.67;;
19396;SDS011;9834;48.076;11.878;2022-11-20T12:16:56;0.67;;;0.63;;
19396;SDS011;9834;48.076;11.878;2022-11-20T12:19:23;1.47;;;0.80;;
19396;SDS011;9834;48.076;11.878;2022-11-20T12:21:54;1.10;;;0.60;;
19396;SDS011;9834;48.076;11.878;2022-11-20T12:24:33;0.30;;;0.30;;
19396;SDS011;9834;48.076;11.878;2022-11-20T12:27:26;0.50;;;0.50;;
19396;SDS011;9834;48.076;11.878;2022-11-20T12:30:16;0.57;;;0.57;;
19396;SDS011;9834;48.076;11.878;2022-11-20T12:32:54;0.90;;;0.80;;
19396;SDS011;9834;48.076;11.878;2022-11-20T12:35:49;0.97;;;0.73;;
19396;SDS011;9834;48.076;11.878;2022-11-20T12:41:46;2.80;;;0.70;;
19396;SDS011;9834;48.076;11.878;2022-11-20T12:44:46;1.03;;;0.93;;
19396;SDS011;9834;48.076;11.878;2022-11-20T12:47:38;0.57;;;0.57;;
19396;SDS011;9834;48.076;11.878;2022-11-20T12:50:17;2.27;;;0.90;;
19396;SDS011;9834;48.076;11.878;2022-11-20T12:52:53;0.97;;;0.70;;
19396;SDS011;9834;48.076;11.878;2022-11-20T12:55:32;0.77;;;0.50;;
19396;SDS011;9834;48.076;11.878;2022-11-20T12:58:09;1.60;;;0.80;;
19396;SDS011;9834;48.076;11.878;2022-11-20T13:00:43;2.77;;;0.73;;
19396;SDS011;9834;48.076;11.878;2022-11-20T13:03:31;1.33;;;0.80;;
19396;SDS011;9834;48.076;11.878;2022-11-20T13:06:05;1.00;;;0.80;;
19396;SDS011;9834;48.076;11.878;2022-11-20T13:08:39;1.27;;;0.90;;
19396;SDS011;9834;48.076;11.878;2022-11-20T13:11:11;0.70;;;0.63;;
19396;SDS011;9834;48.076;11.878;2022-11-20T13:13:55;1.00;;;0.80;;
19396;SDS011;9834;48.076;11.878;2022-11-20T13:16:32;0.87;;;0.87;;
19396;SDS011;9834;48.076;11.878;2022-11-20T13:19:04;1.03;;;0.67;;
19396;SDS011;9834;48.076;11.878;2022-11-20T13:21:36;0.50;;;0.50;;
19396;SDS011;9834;48.076;11.878;2022-11-20T13:24:05;0.80;;;0.77;;
19396;SDS011;9834;48.076;11.878;2022-11-20T13:26:33;0.40;;;0.40;;
19396;SDS011;9834;48.076;11.878;2022-11-20T13:29:02;1.03;;;0.70;;
19396;SDS011;9834;48.076;11.878;2022-11-20T13:31:36;0.67;;;0.67;;
19396;SDS011;9834;48.076;11.878;2022-11-20T13:34:10;0.60;;;0.60;;
19396;SDS011;9834;48.076;11.878;2022-11-20T13:36:48;1.87;;;0.63;;
19396;SDS011;9834;48.076;11.878;2022-11-20T13:39:23;0.70;;;0.70;;
19396;SDS011;9834;48.076;11.878;2022-11-20T13:41:53;0.67;;;0.67;;
19396;SDS011;9834;48.076;11.878;2022-11-20T13:44:23;1.23;;;0.83;;
19396;SDS011;9834;48.076;11.878;2022-11-20T13:46:56;1.27;;;1.00;;
19396;SDS011;9834;48.076;11.878;2022-11-20T13:49:24;0.70;;;0.70;;
19396;SDS011;9834;48.076;11.878;2022-11-20T13:51:55;0.70;;;0.70;;
19396;SDS011;9834;48.076;11.878;2022-11-20T13:54:44;0.93;;;0.73;;
19396;SDS011;9834;48.076;11.878;2022-11-20T13:57:39;0.70;;;0.70;;
19396;SDS011;9834;48.076;11.878;2022-11-20T14:00:19;2.07;;;0.83;;
19396;SDS011;9834;48.076;11.878;2022-11-20T14:02:52;1.30;;;0.73;;
19396;SDS011;9834;48.076;11.878;2022-11-20T14:05:27;4.20;;;0.90;;
19396;SDS011;9834;48.076;11.878;2022-11-20T14:07:57;0.60;;;0.60;;
19396;SDS011;9834;48.076;11.878;2022-11-20T14:10:24;2.50;;;1.47;;
19396;SDS011;9834;48.076;11.878;2022-11-20T14:12:53;1.13;;;1.03;;
19396;SDS011;9834;48.076;11.878;2022-11-20T14:15:23;1.77;;;1.67;;
19396;SDS011;9834;48.076;11.878;2022-11-20T14:17:53;0.83;;;0.83;;
19396;SDS011;9834;48.076;11.878;2022-11-20T14:20:19;0.80;;;0.80;;
19396;SDS011;9834;48.076;11.878;2022-11-20T14:22:51;1.30;;;1.20;;
19396;SDS011;9834;48.076;11.878;2022-11-20T14:25:19;1.27;;;1.17;;
19396;SDS011;9834;48.076;11.878;2022-11-20T14:27:50;2.47;;;2.27;;
19396;SDS011;9834;48.076;11.878;2022-11-20T14:30:19;32.53;;;16.97;;
19396;SDS011;9834;48.076;11.878;2022-11-20T14:32:48;16.50;;;9.23;;
19396;SDS011;9834;48.076;11.878;2022-11-20T14:35:20;13.03;;;6.73;;
19396;SDS011;9834;48.076;11.878;2022-11-20T14:37:51;8.43;;;4.00;;
19396;SDS011;9834;48.076;11.878;2022-11-20T14:40:23;11.53;;;7.63;;
19396;SDS011;9834;48.076;11.878;2022-11-20T14:42:55;12.13;;;7.53;;
19396;SDS011;9834;48.076;11.878;2022-11-20T14:45:22;5.90;;;3.93;;
19396;SDS011;9834;48.076;11.878;2022-11-20T14:47:51;5.97;;;3.10;;
19396;SDS011;9834;48.076;11.878;2022-11-20T14:50:21;3.93;;;3.53;;
19396;SDS011;9834;48.076;11.878;2022-11-20T14:52:50;3.97;;;2.93;;
19396;SDS011;9834;48.076;11.878;2022-11-20T14:55:31;2.63;;;2.20;;
19396;SDS011;9834;48.076;11.878;2022-11-20T14:58:01;1.93;;;1.77;;
19396;SDS011;9834;48.076;11.878;2022-11-20T15:00:30;2.13;;;2.00;;
19396;SDS011;9834;48.076;11.878;2022-11-20T15:02:58;2.63;;;2.13;;
19396;SDS011;9834;48.076;11.878;2022-11-20T15:08:13;3.67;;;1.70;;
19396;SDS011;9834;48.076;11.878;2022-11-20T15:10:45;2.20;;;1.83;;
19396;SDS011;9834;48.076;11.878;2022-11-20T15:13:13;7.83;;;1.53;;
19396;SDS011;9834;48.076;11.878;2022-11-20T15:15:44;3.23;;;1.27;;
19396;SDS011;9834;48.076;11.878;2022-11-20T15:18:14;3.03;;;2.73;;
19396;SDS011;9834;48.076;11.878;2022-11-20T15:20:44;3.80;;;1.80;;
19396;SDS011;9834;48.076;11.878;2022-11-20T15:23:13;2.10;;;1.53;;
19396;SDS011;9834;48.076;11.878;2022-11-20T15:25:43;3.67;;;3.33;;
19396;SDS011;9834;48.076;11.878;2022-11-20T15:28:13;3.03;;;2.07;;